Time;durP1;ratioP1;P1;durP2;ratioP2;P2;SDS_P1;SDS_P2;PMS_P1;PMS_P2;Temp;Humidity;BMP_temperature;BMP_pressure;BME280_temperature;BME280_humidity;BME280_pressure;Samples;Min_cycle;Max_cycle;Signal;HPM_P1;HPM_P2
2022/04/06 00:00:08;;;;;;;28.40;16.50;;;10.70;99.90;;;;;;5053194;28;20082;-78
2022/04/06 00:02:35;;;;;;;37.22;18.05;;;10.70;99.90;;;;;;5052939;28;20064;-78
2022/04/06 00:05:00;;;;;;;36.25;16.52;;;10.70;99.90;;;;;;5053112;28;20432;-78
2022/04/06 00:07:27;;;;;;;37.38;16.33;;;10.70;99.90;;;;;;5053213;28;20029;-78
2022/04/06 00:09:52;;;;;;;31.70;15.60;;;10.60;99.90;;;;;;5052842;28;20073;-78
2022/04/06 00:12:18;;;;;;;32.33;16.45;;;10.60;99.90;;;;;;5052770;28;20049;-78
2022/04/06 00:14:44;;;;;;;28.08;14.90;;;10.60;99.90;;;;;;5052595;28;20032;-79
2022/04/06 00:17:10;;;;;;;32.28;15.20;;;10.60;99.90;;;;;;5053092;28;20029;-78
2022/04/06 00:19:36;;;;;;;29.70;14.32;;;10.70;99.90;;;;;;5053166;28;20029;-78
2022/04/06 00:22:03;;;;;;;29.13;14.63;;;10.70;99.90;;;;;;5052715;28;20089;-79
2022/04/06 00:24:29;;;;;;;34.80;14.07;;;10.60;99.90;;;;;;5053071;28;20035;-79
2022/04/06 00:26:55;;;;;;;31.33;14.27;;;10.60;99.90;;;;;;5052490;28;20025;-79
2022/04/06 00:29:21;;;;;;;33.25;14.73;;;10.60;99.90;;;;;;5052617;28;20032;-79
2022/04/06 00:31:46;;;;;;;30.88;14.25;;;10.60;99.90;;;;;;5052644;28;20031;-79
2022/04/06 00:34:13;;;;;;;33.78;13.68;;;10.60;99.90;;;;;;5052686;28;20116;-79
2022/04/06 00:36:38;;;;;;;29.60;13.30;;;10.60;99.90;;;;;;5052536;28;20109;-79
2022/04/06 00:39:04;;;;;;;25.75;12.30;;;10.60;99.90;;;;;;5052868;28;20048;-79
2022/04/06 00:41:33;;;;;;;31.77;12.35;;;10.60;99.90;;;;;;5052703;28;20083;-79
2022/04/06 00:44:16;;;;;;;29.13;12.27;;;10.60;99.90;;;;;;5052476;28;20108;-79
2022/04/06 00:46:44;;;;;;;32.58;13.27;;;10.60;99.90;;;;;;5052637;28;20032;-79
2022/04/06 00:49:14;;;;;;;31.23;13.25;;;10.70;99.90;;;;;;5052231;28;20108;-79
2022/04/06 00:51:45;;;;;;;26.75;12.13;;;10.70;99.90;;;;;;5054381;28;20029;-79
2022/04/06 00:54:15;;;;;;;34.40;12.77;;;10.60;99.90;;;;;;5056068;28;20028;-78
2022/04/06 00:56:42;;;;;;;28.73;12.82;;;10.60;99.90;;;;;;5056197;28;20070;-78
2022/04/06 00:59:08;;;;;;;32.83;12.68;;;10.70;99.90;;;;;;5056081;28;20032;-79
2022/04/06 01:01:34;;;;;;;33.10;13.50;;;10.60;99.90;;;;;;5056515;28;20036;-78
2022/04/06 01:04:00;;;;;;;27.88;13.18;;;10.60;99.90;;;;;;5056569;28;20025;-78
2022/04/06 01:06:25;;;;;;;33.10;12.85;;;10.60;99.90;;;;;;5055861;28;20059;-78
2022/04/06 01:08:52;;;;;;;29.08;12.75;;;10.60;99.90;;;;;;5055907;28;20105;-78
2022/04/06 01:11:19;;;;;;;28.55;13.32;;;10.60;99.90;;;;;;5055921;28;20048;-79
2022/04/06 01:13:45;;;;;;;33.17;13.70;;;10.60;99.90;;;;;;5055581;28;20074;-79
2022/04/06 01:16:11;;;;;;;37.42;13.82;;;10.60;99.90;;;;;;5055762;28;20033;-79
2022/04/06 01:18:36;;;;;;;36.92;13.73;;;10.50;99.90;;;;;;5055784;28;20044;-79
2022/04/06 01:21:03;;;;;;;34.78;14.27;;;10.50;99.90;;;;;;5055764;28;20028;-79
2022/04/06 01:23:30;;;;;;;32.47;13.75;;;10.50;99.90;;;;;;5055555;28;20025;-79
2022/04/06 01:25:57;;;;;;;28.48;13.73;;;10.50;99.90;;;;;;5055573;28;20384;-78
2022/04/06 01:28:24;;;;;;;37.75;13.85;;;10.50;99.90;;;;;;5055746;28;20021;-79
2022/04/06 01:30:49;;;;;;;34.28;12.35;;;10.50;99.90;;;;;;5055166;28;20525;-78
2022/04/06 01:33:15;;;;;;;29.50;13.20;;;10.50;99.90;;;;;;5055660;28;20021;-78
2022/04/06 01:35:42;;;;;;;31.63;12.80;;;10.40;99.90;;;;;;5055661;28;20021;-79
2022/04/06 01:38:09;;;;;;;30.85;13.77;;;10.40;99.90;;;;;;5055099;28;20387;-80
2022/04/06 01:40:35;;;;;;;32.38;12.43;;;10.50;99.90;;;;;;5055286;28;20104;-79
2022/04/06 01:43:00;;;;;;;32.03;11.95;;;10.40;99.90;;;;;;5055083;28;20056;-80
2022/04/06 01:45:26;;;;;;;31.33;11.98;;;10.50;99.90;;;;;;5055317;28;20071;-80
2022/04/06 01:47:52;;;;;;;28.38;11.43;;;10.50;99.90;;;;;;5055492;28;20032;-80
2022/04/06 01:53:03;;;;;;;37.88;12.20;;;10.50;99.90;;;;;;5055321;28;20113;-79
2022/04/06 01:55:29;;;;;;;22.40;10.77;;;10.50;99.90;;;;;;5054729;28;20029;-80
2022/04/06 01:57:54;;;;;;;31.00;10.57;;;10.50;99.90;;;;;;5055088;28;20120;-79
2022/04/06 02:00:20;;;;;;;29.30;10.38;;;10.50;99.90;;;;;;5055073;28;20130;-79
2022/04/06 02:02:49;;;;;;;29.42;10.52;;;10.40;99.90;;;;;;5054102;28;20029;-79
2022/04/06 02:05:16;;;;;;;28.77;11.07;;;10.40;99.90;;;;;;5054787;28;20028;-79
2022/04/06 02:07:46;;;;;;;29.20;9.55;;;10.40;99.90;;;;;;5054463;28;20488;-79
2022/04/06 02:10:12;;;;;;;29.77;9.45;;;10.40;99.90;;;;;;5054738;28;20068;-79
2022/04/06 02:12:39;;;;;;;22.10;8.98;;;10.40;99.90;;;;;;5054977;28;20028;-77
2022/04/06 02:15:06;;;;;;;24.38;9.07;;;10.40;99.90;;;;;;5054748;28;20027;-77
2022/04/06 02:17:32;;;;;;;22.83;8.93;;;10.40;99.90;;;;;;5054364;28;20036;-77
2022/04/06 02:19:57;;;;;;;27.83;8.20;;;10.40;99.90;;;;;;5054377;28;20029;-78
2022/04/06 02:22:23;;;;;;;20.73;8.48;;;10.40;99.90;;;;;;5054817;28;20017;-78
2022/04/06 02:24:49;;;;;;;34.90;9.63;;;10.40;99.90;;;;;;5054367;28;20025;-78
2022/04/06 02:27:14;;;;;;;24.65;8.50;;;10.40;99.90;;;;;;5054693;28;20138;-78
2022/04/06 02:29:40;;;;;;;24.20;8.38;;;10.40;99.90;;;;;;5054430;28;20021;-78
2022/04/06 02:32:07;;;;;;;24.65;8.57;;;10.30;99.90;;;;;;5054174;28;20025;-78
2022/04/06 02:34:33;;;;;;;22.05;7.85;;;10.40;99.90;;;;;;5054295;28;20025;-78
2022/04/06 02:36:59;;;;;;;23.30;8.52;;;10.40;99.90;;;;;;5054761;28;20021;-78
2022/04/06 02:39:25;;;;;;;26.20;8.30;;;10.40;99.90;;;;;;5054309;28;20033;-79
2022/04/06 02:41:51;;;;;;;22.27;8.27;;;10.40;99.90;;;;;;5054361;28;20108;-78
2022/04/06 02:44:17;;;;;;;27.75;8.00;;;10.40;99.90;;;;;;5054013;28;20427;-78
2022/04/06 02:46:48;;;;;;;21.63;7.90;;;10.40;99.90;;;;;;5054264;28;20070;-78
2022/04/06 02:49:13;;;;;;;18.13;7.53;;;10.30;99.90;;;;;;5054301;28;20412;-78
2022/04/06 02:51:40;;;;;;;20.42;6.45;;;10.30;99.90;;;;;;5054258;28;20029;-78
2022/04/06 02:54:05;;;;;;;24.50;6.90;;;10.30;99.90;;;;;;5053887;28;20547;-78
2022/04/06 02:56:31;;;;;;;17.15;6.57;;;10.30;99.90;;;;;;5053716;28;20136;-78
2022/04/06 02:58:57;;;;;;;21.55;6.63;;;10.40;99.90;;;;;;5054088;28;20033;-79
2022/04/06 03:01:23;;;;;;;23.48;6.45;;;10.40;99.90;;;;;;5053766;28;20056;-81
2022/04/06 03:03:48;;;;;;;22.58;6.55;;;10.40;99.90;;;;;;5054037;28;20059;-80
2022/04/06 03:06:14;;;;;;;19.25;6.55;;;10.40;99.90;;;;;;5054075;28;20547;-81
2022/04/06 03:08:40;;;;;;;21.70;6.30;;;10.40;99.90;;;;;;5053838;28;20017;-80
2022/04/06 03:11:06;;;;;;;23.42;7.15;;;10.40;99.90;;;;;;5053178;28;20099;-81
2022/04/06 03:13:31;;;;;;;20.30;5.78;;;10.40;99.90;;;;;;5053808;28;20029;-81
2022/04/06 03:15:58;;;;;;;15.90;5.60;;;10.30;99.90;;;;;;5053700;28;20024;-80
2022/04/06 03:18:23;;;;;;;17.92;5.30;;;10.30;99.90;;;;;;5053686;28;20091;-80
2022/04/06 03:20:49;;;;;;;11.85;4.95;;;10.30;99.90;;;;;;5053375;28;20407;-80
2022/04/06 03:23:15;;;;;;;20.13;5.03;;;10.30;99.90;;;;;;5053333;28;20048;-80
2022/04/06 03:25:42;;;;;;;19.33;5.72;;;10.30;99.90;;;;;;5053575;28;20075;-80
2022/04/06 03:28:08;;;;;;;16.75;4.95;;;10.30;99.90;;;;;;5053113;28;20029;-80
2022/04/06 03:30:33;;;;;;;24.92;6.38;;;10.30;99.90;;;;;;5053275;28;20515;-80
2022/04/06 03:32:59;;;;;;;13.65;4.18;;;10.20;99.90;;;;;;5052941;28;20032;-80
2022/04/06 03:35:25;;;;;;;12.57;4.88;;;10.20;99.90;;;;;;5053435;28;20032;-79
2022/04/06 03:37:51;;;;;;;16.10;4.40;;;10.20;99.90;;;;;;5053452;28;20358;-79
2022/04/06 03:40:17;;;;;;;11.48;3.85;;;10.20;99.90;;;;;;5053463;28;20063;-80
2022/04/06 03:42:42;;;;;;;18.77;4.32;;;10.20;99.90;;;;;;5053007;28;20047;-79
2022/04/06 03:45:09;;;;;;;15.90;3.80;;;10.20;99.90;;;;;;5053136;28;20505;-79
2022/04/06 03:47:35;;;;;;;14.52;3.50;;;10.20;99.90;;;;;;5053397;28;20040;-80
2022/04/06 03:50:03;;;;;;;14.13;3.45;;;10.20;99.90;;;;;;5052969;28;20029;-79
2022/04/06 03:52:28;;;;;;;14.07;3.15;;;10.20;99.90;;;;;;5053169;28;20095;-79
2022/04/06 03:54:55;;;;;;;13.27;3.22;;;10.20;99.90;;;;;;5052927;28;20025;-79
2022/04/06 03:57:21;;;;;;;13.82;3.53;;;10.20;99.90;;;;;;5052858;28;20503;-79
2022/04/06 03:59:46;;;;;;;19.52;3.10;;;10.20;99.90;;;;;;5052980;28;20025;-79
2022/04/06 04:02:12;;;;;;;17.30;3.30;;;10.20;99.90;;;;;;5053324;28;20104;-79
2022/04/06 04:04:38;;;;;;;13.52;2.65;;;10.20;99.90;;;;;;5053143;28;20558;-78
2022/04/06 04:07:06;;;;;;;18.17;3.47;;;10.10;99.90;;;;;;5052893;28;20021;-79
2022/04/06 04:09:33;;;;;;;14.95;2.28;;;10.10;99.90;;;;;;5052607;28;20111;-78
2022/04/06 04:11:58;;;;;;;10.50;2.67;;;10.10;99.90;;;;;;5053225;28;20027;-78
2022/04/06 04:14:24;;;;;;;13.95;2.95;;;10.00;99.90;;;;;;5052701;28;20112;-78
2022/04/06 04:16:50;;;;;;;11.07;2.15;;;10.10;99.90;;;;;;5052797;28;20472;-78
2022/04/06 04:19:16;;;;;;;12.02;2.58;;;10.00;99.90;;;;;;5052770;28;20036;-78
2022/04/06 04:21:43;;;;;;;11.52;2.47;;;10.10;99.90;;;;;;5052936;28;20076;-78
2022/04/06 04:24:09;;;;;;;12.77;2.50;;;10.10;99.90;;;;;;5052670;28;20484;-79
2022/04/06 04:26:36;;;;;;;9.45;2.83;;;10.10;99.90;;;;;;5054354;28;20104;-79
2022/04/06 04:29:03;;;;;;;11.27;2.28;;;10.00;99.90;;;;;;5056354;28;20021;-79
2022/04/06 04:31:29;;;;;;;11.70;2.20;;;10.00;99.90;;;;;;5056753;28;20029;-78
2022/04/06 04:33:56;;;;;;;10.10;1.80;;;10.10;99.90;;;;;;5056638;28;20032;-78
2022/04/06 04:36:21;;;;;;;10.82;1.95;;;10.00;99.90;;;;;;5056502;28;20039;-78
2022/04/06 04:38:47;;;;;;;16.45;2.90;;;10.10;99.90;;;;;;5056794;28;20116;-78
2022/04/06 04:41:13;;;;;;;10.32;2.33;;;10.10;99.90;;;;;;5056504;28;20032;-78
2022/04/06 04:43:39;;;;;;;14.70;2.20;;;10.10;99.90;;;;;;5056418;28;20111;-78
2022/04/06 04:46:05;;;;;;;8.23;2.00;;;10.10;99.90;;;;;;5056624;28;20018;-78
2022/04/06 04:48:31;;;;;;;15.15;3.17;;;10.10;99.90;;;;;;5056087;28;20491;-78
2022/04/06 04:50:57;;;;;;;14.73;2.28;;;10.10;99.90;;;;;;5056100;28;20507;-79
2022/04/06 04:53:23;;;;;;;14.10;2.17;;;10.10;99.90;;;;;;5056015;28;20029;-78
2022/04/06 04:55:49;;;;;;;10.93;1.95;;;10.10;99.90;;;;;;5056343;28;20025;-78
2022/04/06 04:58:15;;;;;;;12.40;2.50;;;10.10;99.90;;;;;;5055669;28;20561;-78
2022/04/06 05:00:41;;;;;;;12.63;2.67;;;10.10;99.90;;;;;;5056307;28;20021;-78
2022/04/06 05:03:08;;;;;;;8.10;2.33;;;10.10;99.90;;;;;;5056141;28;20021;-78
2022/04/06 05:05:34;;;;;;;12.13;2.42;;;10.10;99.90;;;;;;5055936;28;20021;-78
2022/04/06 05:08:01;;;;;;;12.55;2.20;;;10.10;99.90;;;;;;5055596;28;20077;-78
2022/04/06 05:10:26;;;;;;;9.30;2.28;;;10.10;99.90;;;;;;5055313;28;20053;-78
2022/04/06 05:12:53;;;;;;;10.98;2.20;;;10.00;99.90;;;;;;5055864;28;20056;-79
2022/04/06 05:15:20;;;;;;;12.45;3.10;;;10.00;99.90;;;;;;5055847;28;20104;-78
2022/04/06 05:17:46;;;;;;;11.27;2.05;;;10.00;99.90;;;;;;5055488;28;20044;-78
2022/04/06 05:20:12;;;;;;;10.15;2.35;;;10.00;99.90;;;;;;5055235;28;20059;-81
2022/04/06 05:22:38;;;;;;;10.88;2.13;;;10.00;99.90;;;;;;5055728;28;20087;-79
2022/04/06 05:25:07;;;;;;;12.63;2.58;;;10.00;99.90;;;;;;5055601;28;20071;-80
2022/04/06 05:27:45;;;;;;;9.48;2.45;;;10.00;99.90;;;;;;5055039;28;20025;-80
2022/04/06 05:30:13;;;;;;;14.88;2.95;;;10.00;99.90;;;;;;5055431;28;20052;-80
2022/04/06 05:32:38;;;;;;;13.52;2.90;;;10.10;99.90;;;;;;5054317;28;20032;-78
2022/04/06 05:35:04;;;;;;;10.65;2.80;;;10.10;99.90;;;;;;5054731;28;20387;-78
2022/04/06 05:37:33;;;;;;;12.85;3.20;;;10.10;99.90;;;;;;5053963;28;20040;-78
2022/04/06 05:40:03;;;;;;;13.93;3.25;;;10.10;99.90;;;;;;5055352;28;20032;-78
2022/04/06 05:42:29;;;;;;;13.15;3.25;;;10.00;99.90;;;;;;5055189;28;20033;-78
2022/04/06 05:44:54;;;;;;;11.80;2.75;;;10.00;99.90;;;;;;5055091;28;20018;-79
2022/04/06 05:47:21;;;;;;;12.30;2.75;;;10.10;99.90;;;;;;5055309;28;20025;-82
2022/04/06 05:49:46;;;;;;;15.10;2.90;;;10.10;99.90;;;;;;5053929;28;20036;-79
2022/04/06 05:52:12;;;;;;;15.00;4.20;;;10.10;99.90;;;;;;5054687;28;20364;-84
2022/04/06 05:54:37;;;;;;;11.40;2.60;;;10.10;99.90;;;;;;5054564;28;20163;-79
2022/04/06 05:57:03;;;;;;;16.25;3.72;;;10.10;99.90;;;;;;5054244;28;20033;-79
2022/04/06 05:59:32;;;;;;;9.73;2.55;;;10.10;99.90;;;;;;5054177;28;20025;-80
2022/04/06 06:01:58;;;;;;;12.32;2.67;;;10.20;99.90;;;;;;5054891;28;20059;-75
2022/04/06 06:04:23;;;;;;;8.85;2.30;;;10.20;99.90;;;;;;5054549;28;20021;-77
2022/04/06 06:06:49;;;;;;;11.70;3.25;;;10.20;99.90;;;;;;5054885;28;20021;-79
2022/04/06 06:09:15;;;;;;;9.43;2.85;;;10.20;99.90;;;;;;5055702;28;20549;-78
2022/04/06 06:11:41;;;;;;;9.18;2.55;;;10.20;99.90;;;;;;5054618;28;20053;-79
2022/04/06 06:14:07;;;;;;;11.82;3.20;;;10.20;99.90;;;;;;5054671;28;20055;-84
2022/04/06 06:16:33;;;;;;;12.05;3.20;;;10.30;99.90;;;;;;5054518;28;20115;-80
2022/04/06 06:18:59;;;;;;;13.18;3.65;;;10.20;99.90;;;;;;5054255;28;20598;-79
2022/04/06 06:21:26;;;;;;;14.02;3.28;;;10.30;99.90;;;;;;5053899;28;20464;-79
2022/04/06 06:23:53;;;;;;;15.05;3.63;;;10.30;99.90;;;;;;5050640;28;20024;-81
2022/04/06 06:26:19;;;;;;;12.35;3.40;;;10.30;99.90;;;;;;5053575;28;20040;-84
2022/04/06 06:28:45;;;;;;;13.18;3.85;;;10.30;99.90;;;;;;5052803;28;20025;-83
2022/04/06 06:31:11;;;;;;;14.73;4.13;;;10.30;99.90;;;;;;5053797;28;20028;-82
2022/04/06 06:33:36;;;;;;;16.20;3.95;;;10.30;99.90;;;;;;5053483;28;20104;-82
2022/04/06 06:36:02;;;;;;;13.23;4.00;;;10.30;99.90;;;;;;5052786;28;20020;-83
2022/04/06 06:38:28;;;;;;;16.58;4.60;;;10.30;99.90;;;;;;5053896;28;20492;-83
2022/04/06 06:40:54;;;;;;;19.60;5.22;;;10.30;99.90;;;;;;5054007;28;20020;-83
2022/04/06 06:43:20;;;;;;;14.10;4.40;;;10.30;99.90;;;;;;5053910;28;20035;-80
2022/04/06 06:45:46;;;;;;;18.85;5.28;;;10.30;99.90;;;;;;5053553;28;20021;-82
2022/04/06 06:48:12;;;;;;;15.52;5.22;;;10.30;99.90;;;;;;5053411;28;20033;-80
2022/04/06 06:50:37;;;;;;;11.90;4.05;;;10.30;99.90;;;;;;5052643;28;20020;-81
2022/04/06 06:53:03;;;;;;;19.02;4.60;;;10.30;99.90;;;;;;5053864;28;20025;-82
2022/04/06 06:55:28;;;;;;;14.63;4.15;;;10.30;99.90;;;;;;5053483;28;20025;-81
2022/04/06 06:57:54;;;;;;;16.50;4.03;;;10.30;99.90;;;;;;5053270;28;20488;-80
2022/04/06 07:00:20;;;;;;;14.77;4.03;;;10.30;99.90;;;;;;5053114;28;20021;-80
2022/04/06 07:02:46;;;;;;;12.82;4.22;;;10.30;99.90;;;;;;5053368;28;20040;-80
2022/04/06 07:05:12;;;;;;;13.23;3.97;;;10.30;99.90;;;;;;5052609;28;20032;-82
2022/04/06 07:07:49;;;;;;;14.05;3.50;;;10.40;99.90;;;;;;5053593;28;20033;-82
2022/04/06 07:10:16;;;;;;;16.95;3.50;;;10.40;99.90;;;;;;5052256;28;20053;-84
2022/04/06 07:12:42;;;;;;;13.98;3.33;;;10.30;99.90;;;;;;5052896;28;20036;-83
2022/04/06 07:15:08;;;;;;;12.88;3.00;;;10.30;99.90;;;;;;5053041;28;20033;-86
2022/04/06 07:17:36;;;;;;;14.02;2.75;;;10.30;99.90;;;;;;5053346;28;20032;-84
2022/04/06 07:20:03;;;;;;;9.85;2.90;;;10.30;99.90;;;;;;5053599;28;20029;-87
2022/04/06 07:22:28;;;;;;;17.42;2.75;;;10.40;99.90;;;;;;5051342;28;20021;-89
2022/04/06 07:24:54;;;;;;;12.00;2.50;;;10.40;99.90;;;;;;5053272;28;20025;-89
2022/04/06 07:27:21;;;;;;;13.25;2.42;;;10.40;99.90;;;;;;5053386;28;20017;-87
2022/04/06 07:29:47;;;;;;;12.63;2.58;;;10.40;99.90;;;;;;5052372;28;20459;-88
2022/04/06 07:32:12;;;;;;;8.90;1.73;;;10.40;99.90;;;;;;5052837;28;20469;-89
2022/04/06 07:34:38;;;;;;;13.82;2.63;;;10.40;99.90;;;;;;5053893;28;20090;-88
2022/04/06 07:37:06;;;;;;;8.18;1.92;;;10.40;99.90;;;;;;5053052;28;20033;-88
2022/04/06 07:39:32;;;;;;;8.65;1.98;;;10.40;99.90;;;;;;5052098;28;20439;-86
2022/04/06 07:41:58;;;;;;;11.60;1.55;;;10.40;99.90;;;;;;5060142;28;20028;-86
2022/04/06 07:44:26;;;;;;;8.60;1.50;;;10.40;99.90;;;;;;5056756;28;20025;-85
2022/04/06 07:46:52;;;;;;;12.23;1.67;;;10.50;99.90;;;;;;5052851;28;20028;-85
2022/04/06 07:49:18;;;;;;;9.52;1.35;;;10.50;99.90;;;;;;5052687;28;20029;-85
2022/04/06 07:51:44;;;;;;;7.22;1.50;;;10.50;99.60;;;;;;5052311;28;20109;-86
2022/04/06 07:54:10;;;;;;;6.15;1.42;;;10.50;99.30;;;;;;5052340;28;20025;-85
2022/04/06 07:56:36;;;;;;;7.25;1.33;;;10.50;99.10;;;;;;5050856;28;20025;-85
2022/04/06 07:59:03;;;;;;;7.40;0.82;;;10.50;99.30;;;;;;5052361;28;20484;-86
2022/04/06 08:01:31;;;;;;;9.85;1.27;;;10.50;99.20;;;;;;5053726;28;20379;-87
2022/04/06 08:03:57;;;;;;;8.43;1.30;;;10.60;99.20;;;;;;5056917;28;20032;-86
2022/04/06 08:06:24;;;;;;;8.48;1.10;;;10.60;99.10;;;;;;5056710;28;20515;-86
2022/04/06 08:08:51;;;;;;;14.27;1.60;;;10.60;98.80;;;;;;5056997;28;20033;-83
2022/04/06 08:11:18;;;;;;;9.40;0.90;;;10.60;98.50;;;;;;5056322;28;20074;-83
2022/04/06 08:13:44;;;;;;;8.77;0.90;;;10.60;98.40;;;;;;5056260;28;20480;-80
2022/04/06 08:16:10;;;;;;;4.75;0.75;;;10.70;98.40;;;;;;5055863;28;20040;-86
2022/04/06 08:18:37;;;;;;;9.45;1.02;;;10.70;98.20;;;;;;5055927;28;20029;-84
2022/04/06 08:24:13;;;;;;;5.88;1.13;;;10.80;98.30;;;;;;5018484;28;20440;-86
2022/04/06 08:26:40;;;;;;;9.32;1.23;;;10.80;98.00;;;;;;5016001;28;20121;-87
2022/04/06 08:29:06;;;;;;;6.10;0.85;;;10.80;98.00;;;;;;5015576;28;20166;-86
2022/04/06 08:31:31;;;;;;;10.93;1.25;;;10.80;98.00;;;;;;5027617;28;20032;-86
2022/04/06 08:33:58;;;;;;;9.45;1.15;;;10.80;97.30;;;;;;5032532;28;20033;-85
2022/04/06 08:36:24;;;;;;;9.57;1.20;;;10.70;97.70;;;;;;5016792;28;20034;-83
2022/04/06 08:38:50;;;;;;;6.18;1.20;;;10.70;98.10;;;;;;5016941;28;20072;-85
2022/04/06 08:41:29;;;;;;;7.60;1.17;;;10.70;98.40;;;;;;5032871;28;20123;-85
2022/04/06 08:44:03;;;;;;;8.07;1.35;;;10.70;98.20;;;;;;5056059;28;20534;-86
2022/04/06 08:46:35;;;;;;;10.30;1.50;;;10.70;98.30;;;;;;5056332;28;20388;-85
2022/04/06 08:49:02;;;;;;;8.48;1.15;;;10.70;98.60;;;;;;5055413;28;20104;-86
2022/04/06 08:51:29;;;;;;;6.05;1.20;;;10.70;98.40;;;;;;5055161;28;20036;-86
2022/04/06 08:53:55;;;;;;;5.95;1.48;;;10.70;98.70;;;;;;5056050;28;20028;-84
2022/04/06 08:56:22;;;;;;;13.02;1.70;;;10.70;98.90;;;;;;5054633;28;20033;-86
2022/04/06 08:58:48;;;;;;;7.97;1.90;;;10.70;99.50;;;;;;5054635;28;20033;-87
2022/04/06 09:01:14;;;;;;;11.85;2.08;;;10.70;99.50;;;;;;5056410;28;20028;-87
2022/04/06 09:03:40;;;;;;;7.93;1.60;;;10.70;99.90;;;;;;5054917;28;20029;-85
2022/04/06 09:06:08;;;;;;;9.57;2.00;;;10.70;99.90;;;;;;5052455;28;20446;-86
2022/04/06 09:08:51;;;;;;;10.32;2.20;;;10.60;99.90;;;;;;5055008;28;20049;-86
2022/04/06 09:11:20;;;;;;;10.73;2.55;;;10.60;99.90;;;;;;5053548;28;20083;-85
2022/04/06 09:13:48;;;;;;;6.45;1.80;;;10.60;99.90;;;;;;5052996;28;20025;-86
2022/04/06 09:16:29;;;;;;;7.97;2.67;;;10.50;99.90;;;;;;5053017;28;20033;-86
2022/04/06 09:18:54;;;;;;;10.68;2.90;;;10.50;99.90;;;;;;5051550;28;20492;-86
2022/04/06 09:21:20;;;;;;;9.48;2.72;;;10.50;99.90;;;;;;5052572;28;20099;-86
2022/04/06 09:23:48;;;;;;;8.95;3.30;;;10.50;99.90;;;;;;5050327;28;20381;-86
2022/04/06 09:26:23;;;;;;;9.50;2.85;;;10.50;99.90;;;;;;5053754;28;20032;-86
2022/04/06 09:28:50;;;;;;;9.98;2.85;;;10.40;99.90;;;;;;5053691;28;20028;-86
2022/04/06 09:31:17;;;;;;;14.63;3.63;;;10.40;99.90;;;;;;5054752;28;20036;-85
2022/04/06 09:33:58;;;;;;;12.75;3.08;;;10.30;99.90;;;;;;5054480;28;20021;-85
2022/04/06 09:36:27;;;;;;;11.85;3.53;;;10.30;99.90;;;;;;5052757;28;20037;-85
2022/04/06 09:38:53;;;;;;;10.98;3.30;;;10.30;99.90;;;;;;5053837;28;20033;-85
2022/04/06 09:41:19;;;;;;;7.38;3.50;;;10.20;99.90;;;;;;5054715;28;20067;-86
2022/04/06 09:43:46;;;;;;;9.57;3.85;;;10.20;99.90;;;;;;5054232;28;20075;-86
2022/04/06 09:49:18;;;;;;;14.75;4.60;;;10.20;99.90;;;;;;5054897;28;20035;-86
2022/04/06 09:51:45;;;;;;;9.85;4.20;;;10.10;99.90;;;;;;5054759;28;20032;-86
2022/04/06 09:54:13;;;;;;;12.65;3.97;;;10.10;99.90;;;;;;5054881;28;20024;-83
2022/04/06 09:56:40;;;;;;;9.80;4.15;;;10.10;99.90;;;;;;5054411;28;20086;-82
2022/04/06 09:59:07;;;;;;;13.10;4.50;;;10.10;99.90;;;;;;5054769;28;20094;-84
2022/04/06 10:01:58;;;;;;;12.07;4.38;;;10.10;99.90;;;;;;5053627;28;20021;-81
2022/04/06 10:04:25;;;;;;;13.57;4.80;;;10.00;99.90;;;;;;5046875;28;20111;-80
2022/04/06 10:06:52;;;;;;;10.65;4.60;;;10.00;99.90;;;;;;5054133;28;20052;-82
2022/04/06 10:09:18;;;;;;;11.68;4.68;;;10.10;99.90;;;;;;5054135;28;20033;-83
2022/04/06 10:11:43;;;;;;;13.52;5.22;;;10.00;99.90;;;;;;5054419;28;20108;-81
2022/04/06 10:14:10;;;;;;;13.40;5.45;;;10.10;99.90;;;;;;5054255;28;20036;-88
2022/04/06 10:16:36;;;;;;;16.63;6.25;;;10.10;99.90;;;;;;5053514;28;20037;-83
2022/04/06 10:19:03;;;;;;;10.57;5.10;;;10.10;99.90;;;;;;5053214;28;20469;-82
2022/04/06 10:21:38;;;;;;;14.23;6.00;;;10.10;99.90;;;;;;5053722;28;20119;-83
2022/04/06 10:24:14;;;;;;;9.90;5.15;;;10.10;99.90;;;;;;5052446;28;20112;-83
2022/04/06 10:26:58;;;;;;;20.00;6.40;;;10.10;99.90;;;;;;5054191;28;20033;-83
2022/04/06 10:29:24;;;;;;;15.60;6.05;;;10.10;99.90;;;;;;5053928;28;20025;-83
2022/04/06 10:31:49;;;;;;;14.77;6.25;;;10.00;99.90;;;;;;5053430;28;20035;-85
2022/04/06 10:34:37;;;;;;;15.10;6.88;;;10.00;99.90;;;;;;5053367;28;20056;-79
2022/04/06 10:37:11;;;;;;;9.30;5.22;;;10.10;99.90;;;;;;5053519;28;20087;-80
2022/04/06 10:39:53;;;;;;;9.63;5.25;;;10.10;99.90;;;;;;5053329;28;20449;-84
2022/04/06 10:42:28;;;;;;;12.03;5.40;;;10.10;99.90;;;;;;5053386;28;20029;-82
2022/04/06 10:44:55;;;;;;;10.98;5.10;;;10.10;99.90;;;;;;5053006;28;20035;-84
2022/04/06 10:47:22;;;;;;;14.05;5.75;;;10.10;99.90;;;;;;5053638;28;20033;-82
2022/04/06 10:50:13;;;;;;;14.65;5.82;;;10.10;99.90;;;;;;5052779;28;20539;-83
2022/04/06 10:52:42;;;;;;;16.67;5.72;;;10.10;99.90;;;;;;5052674;28;20068;-82
2022/04/06 10:55:21;;;;;;;13.85;5.97;;;10.10;99.90;;;;;;5051399;28;20700;-84
2022/04/06 10:58:03;;;;;;;12.90;5.70;;;10.00;99.90;;;;;;5031693;28;20037;-84
2022/04/06 11:00:30;;;;;;;12.27;6.32;;;10.00;99.90;;;;;;5051305;28;20017;-84
2022/04/06 11:03:15;;;;;;;13.68;5.85;;;10.00;99.90;;;;;;5052640;28;20104;-83
2022/04/06 11:05:44;;;;;;;13.45;6.57;;;10.00;99.90;;;;;;5050579;28;20102;-84
2022/04/06 11:11:35;;;;;;;13.50;7.03;;;10.00;99.90;;;;;;5052993;28;20443;-83
2022/04/06 11:14:02;;;;;;;11.40;6.90;;;10.00;99.90;;;;;;5043415;28;20056;-85
2022/04/06 11:16:41;;;;;;;15.38;6.97;;;9.90;99.90;;;;;;5051447;28;20024;-80
2022/04/06 11:19:07;;;;;;;13.80;6.78;;;10.00;99.90;;;;;;5050579;28;20048;-85
2022/04/06 11:21:34;;;;;;;11.98;7.40;;;10.00;99.90;;;;;;5049364;28;20100;-85
2022/04/06 11:23:59;;;;;;;8.55;6.75;;;10.00;99.90;;;;;;5052578;28;20136;-86
2022/04/06 11:26:26;;;;;;;12.52;6.82;;;10.00;99.90;;;;;;5052976;28;20028;-87
2022/04/06 11:28:58;;;;;;;12.27;6.43;;;10.10;99.90;;;;;;5053141;28;20013;-88
2022/04/06 11:31:25;;;;;;;15.10;7.00;;;10.10;99.90;;;;;;5052676;28;20032;-87
2022/04/06 11:33:50;;;;;;;17.08;7.53;;;10.10;99.90;;;;;;5053326;28;20044;-86
2022/04/06 11:36:18;;;;;;;11.25;6.60;;;10.10;99.90;;;;;;5053065;28;20372;-85
2022/04/06 11:38:54;;;;;;;12.02;6.28;;;10.20;99.90;;;;;;5052834;28;20120;-84
2022/04/06 11:41:20;;;;;;;15.93;6.55;;;10.20;99.90;;;;;;5043563;28;20026;-85
2022/04/06 11:43:46;;;;;;;15.00;5.75;;;10.20;99.90;;;;;;5052610;28;20025;-84
2022/04/06 11:46:12;;;;;;;15.77;5.88;;;10.30;99.90;;;;;;5052923;28;20025;-86
2022/04/06 11:48:42;;;;;;;10.20;5.50;;;10.30;99.90;;;;;;5052896;28;20108;-87
2022/04/06 11:51:09;;;;;;;14.88;5.55;;;10.30;99.90;;;;;;5052244;28;20033;-85
2022/04/06 11:53:36;;;;;;;8.52;4.80;;;10.30;99.90;;;;;;5052792;28;20075;-85
2022/04/06 11:56:03;;;;;;;8.35;5.15;;;10.30;99.90;;;;;;5052520;28;20443;-87
2022/04/06 11:58:39;;;;;;;13.07;5.40;;;10.30;99.90;;;;;;5052275;28;20457;-86
2022/04/06 12:01:17;;;;;;;11.48;4.80;;;10.30;99.90;;;;;;5040658;28;20052;-88
2022/04/06 12:03:45;;;;;;;11.32;4.85;;;10.30;99.90;;;;;;5052650;28;20078;-88
2022/04/06 12:06:14;;;;;;;8.65;4.53;;;10.30;99.90;;;;;;5052143;28;20049;-88
2022/04/06 12:08:42;;;;;;;14.35;4.60;;;10.30;99.90;;;;;;5052352;28;20029;-88
2022/04/06 12:11:08;;;;;;;14.43;5.03;;;10.30;99.90;;;;;;5051715;28;20051;-86
2022/04/06 12:13:36;;;;;;;11.88;4.38;;;10.40;99.90;;;;;;5052023;28;20137;-87
2022/04/06 12:16:02;;;;;;;12.40;4.53;;;10.40;99.90;;;;;;5052476;28;20029;-83
2022/04/06 12:18:29;;;;;;;14.30;4.93;;;10.40;99.90;;;;;;5051789;28;20204;-81
2022/04/06 12:20:55;;;;;;;12.43;4.65;;;10.40;99.90;;;;;;5051561;28;20033;-82
2022/04/06 12:23:24;;;;;;;7.65;4.22;;;10.40;99.90;;;;;;5052487;28;20021;-86
2022/04/06 12:25:50;;;;;;;11.32;4.15;;;10.40;99.90;;;;;;5052893;28;20388;-81
2022/04/06 12:28:24;;;;;;;8.90;3.92;;;10.50;99.90;;;;;;5052226;28;20025;-83
2022/04/06 12:30:57;;;;;;;7.85;3.70;;;10.50;99.90;;;;;;5052607;28;20025;-87
2022/04/06 12:33:51;;;;;;;8.43;3.92;;;10.50;99.90;;;;;;5051967;28;20162;-80
2022/04/06 12:36:24;;;;;;;8.07;3.92;;;10.50;99.90;;;;;;5051549;28;20021;-85
2022/04/06 12:39:00;;;;;;;11.20;4.03;;;10.60;99.90;;;;;;5050428;28;20480;-84
2022/04/06 12:41:28;;;;;;;7.30;3.83;;;10.60;99.90;;;;;;5050359;28;20553;-82
2022/04/06 12:43:54;;;;;;;7.60;3.70;;;10.60;99.90;;;;;;5051959;28;20067;-82
2022/04/06 12:46:43;;;;;;;12.35;5.15;;;10.60;99.90;;;;;;5051751;28;20051;-82
2022/04/06 12:49:26;;;;;;;10.07;4.22;;;10.70;99.90;;;;;;5054378;28;20032;-82
2022/04/06 12:52:14;;;;;;;8.60;3.30;;;10.70;99.90;;;;;;5054791;28;20031;-82